createdAt,value
2019-02-02T00:01:53.618Z,4.30
2019-02-02T00:04:21.746Z,4.30
2019-02-02T00:06:49.577Z,4.20
2019-02-02T00:09:17.712Z,4.20
2019-02-02T00:11:45.678Z,4.20
2019-02-02T00:14:14.257Z,4.30
2019-02-02T00:16:42.299Z,4.30
2019-02-02T00:19:10.822Z,4.30
2019-02-02T00:21:38.810Z,4.20
2019-02-02T00:24:06.743Z,4.30
2019-02-02T00:26:34.648Z,4.30
2019-02-02T00:29:02.513Z,4.30
2019-02-02T00:31:30.431Z,4.20
2019-02-02T00:33:58.498Z,4.20
2019-02-02T00:36:26.451Z,4.30
2019-02-02T00:38:54.889Z,4.40
2019-02-02T00:41:22.933Z,4.30
2019-02-02T00:43:50.787Z,4.30
2019-02-02T00:46:18.819Z,4.20
2019-02-02T00:48:46.770Z,4.20
2019-02-02T00:51:14.895Z,4.20
2019-02-02T00:53:42.854Z,4.30
2019-02-02T00:56:10.856Z,4.30
2019-02-02T00:58:38.749Z,4.30
2019-02-02T01:01:06.707Z,4.30
2019-02-02T01:03:34.731Z,4.10
2019-02-02T01:06:04.782Z,4.20
2019-02-02T01:08:32.675Z,4.20
2019-02-02T01:11:01.048Z,4.40
2019-02-02T01:13:28.884Z,4.50
2019-02-02T01:15:56.949Z,4.40
2019-02-02T01:18:24.863Z,4.40
2019-02-02T01:20:52.808Z,4.50
2019-02-02T01:23:21.298Z,4.50
2019-02-02T01:25:49.224Z,4.50
2019-02-02T01:28:17.037Z,4.50
2019-02-02T01:30:45.006Z,4.30
2019-02-02T01:33:12.906Z,4.20
2019-02-02T01:35:40.741Z,4.30
2019-02-02T01:38:08.708Z,4.20
2019-02-02T01:40:36.621Z,4.30
2019-02-02T01:43:04.929Z,4.30
2019-02-02T01:45:32.831Z,4.30
2019-02-02T01:48:00.647Z,4.30
2019-02-02T01:50:28.690Z,4.40
2019-02-02T01:52:56.976Z,4.30
2019-02-02T01:55:24.906Z,4.60
2019-02-02T01:57:52.947Z,4.40
2019-02-02T02:00:25.284Z,4.30
2019-02-02T02:02:53.383Z,4.40
2019-02-02T02:05:21.771Z,4.40
2019-02-02T02:07:49.970Z,4.40
2019-02-02T02:10:18.539Z,4.40
2019-02-02T02:12:46.485Z,4.40
2019-02-02T02:15:16.036Z,4.30
2019-02-02T02:17:45.584Z,4.20
2019-02-02T02:20:14.775Z,4.20
2019-02-02T02:22:42.992Z,4.30
2019-02-02T02:25:14.865Z,4.30
2019-02-02T02:27:42.891Z,4.40
2019-02-02T02:30:18.076Z,4.40
2019-02-02T02:32:46.110Z,4.40
2019-02-02T02:35:14.409Z,4.40
2019-02-02T02:37:42.884Z,4.40
2019-02-02T02:40:14.188Z,4.20
2019-02-02T02:42:42.154Z,4.30
2019-02-02T02:45:10.221Z,4.30
2019-02-02T02:47:38.228Z,4.30
2019-02-02T02:50:09.532Z,4.30
2019-02-02T02:52:37.438Z,4.40
2019-02-02T02:55:07.810Z,4.30
2019-02-02T02:57:35.636Z,4.20
2019-02-02T03:00:06.921Z,4.30
2019-02-02T03:02:34.736Z,4.30
2019-02-02T03:05:03.204Z,4.30
2019-02-02T03:07:31.135Z,4.40
2019-02-02T03:09:59.289Z,4.30
2019-02-02T03:12:27.808Z,4.20
2019-02-02T03:14:56.210Z,4.20
2019-02-02T03:17:24.044Z,4.30
2019-02-02T03:19:51.946Z,4.40
2019-02-02T03:22:19.828Z,4.40
2019-02-02T03:24:47.726Z,4.30
2019-02-02T03:27:15.828Z,4.20
2019-02-02T03:29:43.784Z,4.20
2019-02-02T03:32:11.796Z,4.30
2019-02-02T03:34:39.636Z,4.40
2019-02-02T03:37:07.532Z,4.30
2019-02-02T03:39:35.850Z,4.40
2019-02-02T03:42:04.033Z,4.30
2019-02-02T03:44:32.011Z,4.30
2019-02-02T03:46:59.845Z,4.50
2019-02-02T03:49:27.855Z,4.50
2019-02-02T03:51:55.854Z,4.50
2019-02-02T03:54:23.804Z,4.60
2019-02-02T03:56:51.734Z,4.50
2019-02-02T03:59:19.729Z,4.40
2019-02-02T04:01:47.576Z,4.40
2019-02-02T04:04:15.411Z,4.40
2019-02-02T04:06:43.256Z,4.40
2019-02-02T04:09:11.212Z,4.40
2019-02-02T04:11:39.555Z,4.40
2019-02-02T04:14:07.693Z,4.20
2019-02-02T04:16:35.617Z,4.20
2019-02-02T04:19:03.585Z,4.30
2019-02-02T04:21:31.406Z,4.30
2019-02-02T04:23:59.639Z,4.50
2019-02-02T04:26:27.563Z,4.50
2019-02-02T04:28:55.629Z,4.50
2019-02-02T04:31:24.042Z,4.60
2019-02-02T04:33:51.993Z,4.60
2019-02-02T04:36:19.876Z,4.60
2019-02-02T04:38:48.506Z,4.60
2019-02-02T04:41:16.417Z,4.60
2019-02-02T04:43:44.309Z,4.50
2019-02-02T04:46:12.163Z,4.50
2019-02-02T04:48:40.127Z,4.60
2019-02-02T04:51:08.097Z,4.60
2019-02-02T04:53:37.175Z,4.70
2019-02-02T04:56:05.128Z,4.70
2019-02-02T04:58:33.039Z,4.50
2019-02-02T05:01:00.899Z,4.60
2019-02-02T05:03:28.780Z,4.40
2019-02-02T05:05:56.707Z,4.30
2019-02-02T05:08:25.070Z,4.30
2019-02-02T05:10:52.970Z,4.30
2019-02-02T05:13:20.875Z,4.50
2019-02-02T05:15:48.832Z,4.50
2019-02-02T05:18:16.811Z,4.50
2019-02-02T05:20:44.787Z,4.40
2019-02-02T05:23:12.740Z,4.40
2019-02-02T05:25:40.912Z,4.20
2019-02-02T05:28:08.735Z,4.10
2019-02-02T05:30:36.681Z,4.10
2019-02-02T05:33:05.228Z,4.00
2019-02-02T05:35:33.161Z,4.00
2019-02-02T05:38:00.992Z,4.10
2019-02-02T05:40:28.887Z,4.10
2019-02-02T05:42:56.696Z,4.30
2019-02-02T05:45:24.665Z,4.30
2019-02-02T05:47:52.587Z,4.30
2019-02-02T05:50:22.486Z,4.30
2019-02-02T05:52:50.716Z,4.20
2019-02-02T05:55:19.606Z,4.20
2019-02-02T05:57:47.892Z,4.20
2019-02-02T06:00:40.060Z,4.20
2019-02-02T06:03:07.937Z,4.10
2019-02-02T06:05:35.803Z,4.20
2019-02-02T06:08:03.899Z,4.20
2019-02-02T06:10:32.199Z,4.20
2019-02-02T06:13:00.083Z,4.30
2019-02-02T06:15:28.870Z,4.30
2019-02-02T06:17:57.268Z,4.50
2019-02-02T06:20:25.167Z,4.40
2019-02-02T06:22:53.376Z,4.40
2019-02-02T06:25:21.384Z,4.30
2019-02-02T06:27:49.258Z,4.30
2019-02-02T06:30:17.923Z,4.40
2019-02-02T06:32:45.802Z,4.40
2019-02-02T06:35:14.878Z,4.50
2019-02-02T06:37:42.745Z,4.40
2019-02-02T06:40:11.913Z,4.30
2019-02-02T06:42:39.929Z,4.40
2019-02-02T06:45:12.738Z,4.30
2019-02-02T06:47:40.560Z,4.40
2019-02-02T06:50:11.940Z,4.40
2019-02-02T06:52:39.831Z,4.40
2019-02-02T06:55:09.162Z,4.60
2019-02-02T06:57:37.256Z,4.70
2019-02-02T07:00:15.776Z,4.70
2019-02-02T07:02:37.892Z,4.70
2019-02-02T07:05:06.439Z,4.60
2019-02-02T07:07:34.318Z,4.40
2019-02-02T07:10:02.332Z,4.40
2019-02-02T07:12:30.142Z,4.50
2019-02-02T07:14:58.131Z,4.60
2019-02-02T07:17:26.200Z,4.60
2019-02-02T07:19:54.232Z,4.60
2019-02-02T07:22:22.305Z,4.70
2019-02-02T07:24:50.318Z,4.80
2019-02-02T07:27:18.640Z,4.70
2019-02-02T07:29:46.524Z,4.80
2019-02-02T07:32:14.390Z,4.90
2019-02-02T07:34:42.358Z,4.90
2019-02-02T07:37:10.328Z,4.90
2019-02-02T07:39:38.490Z,4.80
2019-02-02T07:42:06.318Z,4.70
2019-02-02T07:44:34.939Z,4.70
2019-02-02T07:47:03.057Z,4.60
2019-02-02T07:49:31.077Z,4.60
2019-02-02T07:51:59.116Z,4.60
2019-02-02T07:54:27.186Z,4.60
2019-02-02T07:56:55.464Z,4.80
2019-02-02T07:59:23.394Z,4.70
2019-02-02T08:01:51.347Z,4.70
2019-02-02T08:04:19.541Z,4.80
2019-02-02T08:06:47.621Z,4.80
2019-02-02T08:09:16.097Z,4.80
2019-02-02T08:11:44.074Z,4.70
2019-02-02T08:14:12.055Z,4.80
2019-02-02T08:16:40.188Z,4.80
2019-02-02T08:19:08.280Z,4.80
2019-02-02T08:21:38.199Z,4.80
2019-02-02T08:24:06.389Z,4.80
2019-02-02T08:26:34.510Z,4.90
2019-02-02T08:29:02.534Z,5.10
2019-02-02T08:31:30.438Z,5.20
2019-02-02T08:33:58.321Z,5.20
2019-02-02T08:36:26.694Z,5.20
2019-02-02T08:38:55.150Z,5.10
2019-02-02T08:41:24.377Z,5.00
2019-02-02T08:43:52.261Z,4.90
2019-02-02T08:46:20.103Z,4.80
2019-02-02T08:48:48.154Z,4.80
2019-02-02T08:51:16.129Z,5.00
2019-02-02T08:53:44.327Z,5.00
2019-02-02T08:56:12.219Z,5.10
2019-02-02T08:58:40.357Z,5.20
2019-02-02T09:01:08.265Z,5.30
2019-02-02T09:03:36.206Z,5.20
2019-02-02T09:06:04.444Z,5.20
2019-02-02T09:08:32.389Z,5.40
2019-02-02T09:11:00.822Z,5.60
2019-02-02T09:13:29.037Z,5.70
2019-02-02T09:15:57.538Z,5.70
2019-02-02T09:18:25.500Z,5.60
2019-02-02T09:20:53.640Z,5.70
2019-02-02T09:23:21.906Z,5.60
2019-02-02T09:25:49.969Z,5.60
2019-02-02T09:28:18.183Z,5.70
2019-02-02T09:30:49.676Z,5.70
2019-02-02T09:33:17.816Z,5.80
2019-02-02T09:35:45.699Z,5.80
2019-02-02T09:38:13.936Z,5.80
2019-02-02T09:40:42.457Z,5.90
2019-02-02T09:43:10.886Z,5.90
2019-02-02T09:45:38.845Z,5.80
2019-02-02T09:48:07.824Z,5.90
2019-02-02T09:50:35.925Z,5.90
2019-02-02T09:53:04.293Z,6.10
2019-02-02T09:55:32.226Z,6.10
2019-02-02T09:58:08.681Z,6.20
2019-02-02T10:00:36.288Z,6.00
2019-02-02T10:03:05.000Z,5.90
2019-02-02T10:05:33.486Z,5.90
2019-02-02T10:08:01.988Z,6.10
2019-02-02T10:10:33.136Z,6.20
2019-02-02T10:13:01.800Z,6.40
2019-02-02T10:15:30.131Z,6.50
2019-02-02T10:17:58.273Z,6.50
2019-02-02T10:20:28.266Z,6.70
2019-02-02T10:22:58.057Z,6.60
2019-02-02T10:25:28.566Z,6.50
2019-02-02T10:27:56.918Z,6.60
2019-02-02T10:30:29.204Z,6.70
2019-02-02T10:32:57.221Z,6.70
2019-02-02T10:35:25.895Z,6.90
2019-02-02T10:37:55.297Z,6.90
2019-02-02T10:40:23.253Z,6.80
2019-02-02T10:42:51.316Z,6.80
2019-02-02T10:45:19.530Z,6.80
2019-02-02T10:47:47.367Z,6.80
2019-02-02T10:50:16.853Z,6.80
2019-02-02T10:52:46.045Z,6.80
2019-02-02T10:55:17.319Z,6.90
2019-02-02T10:57:45.495Z,6.90
2019-02-02T11:00:21.309Z,6.90
2019-02-02T11:02:49.445Z,6.80
2019-02-02T11:05:17.676Z,6.70
2019-02-02T11:07:46.237Z,6.50
2019-02-02T11:10:18.963Z,6.40
2019-02-02T11:12:48.845Z,6.30
2019-02-02T11:15:17.812Z,6.40
2019-02-02T11:17:46.285Z,6.60
2019-02-02T11:20:18.672Z,6.60
2019-02-02T11:22:47.128Z,6.70
2019-02-02T11:25:15.170Z,6.60
2019-02-02T11:27:43.258Z,6.50
2019-02-02T11:30:13.345Z,6.50
2019-02-02T11:32:42.599Z,6.80
2019-02-02T11:35:13.237Z,6.90
2019-02-02T11:37:41.867Z,6.80
2019-02-02T11:40:14.860Z,7.00
2019-02-02T11:42:42.796Z,7.00
2019-02-02T11:45:11.827Z,6.90
2019-02-02T11:47:39.890Z,7.00
2019-02-02T11:50:10.891Z,6.80
2019-02-02T11:52:38.977Z,6.80
2019-02-02T11:55:08.624Z,6.90
2019-02-02T11:57:36.706Z,7.00
2019-02-02T12:00:10.730Z,6.70
2019-02-02T12:02:49.172Z,6.70
2019-02-02T12:05:09.138Z,6.70
2019-02-02T12:07:37.132Z,6.70
2019-02-02T12:10:07.861Z,6.80
2019-02-02T12:12:35.966Z,6.60
2019-02-02T12:15:06.806Z,6.70
2019-02-02T12:17:34.739Z,6.70
2019-02-02T12:20:03.924Z,6.80
2019-02-02T12:22:32.059Z,6.80
2019-02-02T12:25:01.809Z,6.80
2019-02-02T12:27:29.893Z,6.70
2019-02-02T12:29:58.207Z,6.70
2019-02-02T12:32:27.070Z,6.90
2019-02-02T12:34:55.751Z,6.90
2019-02-02T12:37:23.770Z,7.10
2019-02-02T12:39:51.791Z,7.20
2019-02-02T12:42:20.312Z,7.30
2019-02-02T12:44:48.385Z,7.40
2019-02-02T12:47:16.635Z,7.50
2019-02-02T12:49:44.686Z,7.60
2019-02-02T12:52:12.723Z,7.70
2019-02-02T12:54:40.931Z,7.80
2019-02-02T12:57:08.916Z,7.80
2019-02-02T12:59:38.158Z,7.80
2019-02-02T13:02:06.294Z,8.00
2019-02-02T13:04:34.565Z,8.00
2019-02-02T13:07:03.166Z,8.00
2019-02-02T13:09:31.131Z,7.90
2019-02-02T13:11:59.087Z,8.00
2019-02-02T13:14:27.280Z,7.80
2019-02-02T13:16:55.420Z,7.70
2019-02-02T13:19:23.707Z,7.60
2019-02-02T13:21:51.704Z,7.80
2019-02-02T13:24:20.111Z,8.00
2019-02-02T13:26:48.229Z,8.10
2019-02-02T13:29:16.326Z,8.20
2019-02-02T13:31:44.244Z,8.40
2019-02-02T13:34:12.313Z,8.30
2019-02-02T13:36:40.403Z,8.40
2019-02-02T13:39:10.894Z,8.30
2019-02-02T13:41:39.938Z,8.30
2019-02-02T13:44:08.163Z,8.30
2019-02-02T13:46:36.624Z,8.30
2019-02-02T13:49:04.646Z,8.10
2019-02-02T13:51:32.683Z,8.10
2019-02-02T13:54:00.789Z,8.10
2019-02-02T13:56:29.167Z,8.10
2019-02-02T13:58:57.125Z,8.20
2019-02-02T14:01:25.225Z,8.30
2019-02-02T14:03:53.293Z,8.40
2019-02-02T14:06:21.797Z,8.50
2019-02-02T14:08:49.735Z,8.60
2019-02-02T14:11:17.802Z,8.70
2019-02-02T14:13:46.458Z,8.70
2019-02-02T14:16:14.488Z,8.80
2019-02-02T14:18:42.557Z,8.80
2019-02-02T14:21:10.766Z,8.80
2019-02-02T14:23:39.194Z,8.80
2019-02-02T14:26:07.143Z,8.70
2019-02-02T14:28:35.116Z,8.60
2019-02-02T14:31:03.114Z,8.60
2019-02-02T14:33:31.280Z,8.50
2019-02-02T14:36:01.858Z,8.50
2019-02-02T14:38:29.583Z,8.40
2019-02-02T14:40:57.739Z,8.30
2019-02-02T14:43:26.069Z,8.40
2019-02-02T14:45:54.305Z,8.50
2019-02-02T14:48:22.659Z,8.50
2019-02-02T14:50:50.686Z,8.30
2019-02-02T14:53:18.665Z,8.30
2019-02-02T14:55:47.137Z,8.30
2019-02-02T14:58:15.171Z,8.30
2019-02-02T15:00:43.231Z,8.30
2019-02-02T15:03:11.147Z,8.30
2019-02-02T15:05:42.971Z,8.30
2019-02-02T15:08:09.420Z,8.30
2019-02-02T15:10:37.935Z,8.20
2019-02-02T15:13:06.090Z,8.20
2019-02-02T15:15:34.625Z,8.20
2019-02-02T15:18:02.763Z,8.10
2019-02-02T15:20:36.094Z,8.20
2019-02-02T15:23:07.479Z,8.10
2019-02-02T15:25:36.380Z,8.00
2019-02-02T15:28:04.648Z,8.00
2019-02-02T15:30:33.560Z,8.00
2019-02-02T15:33:01.964Z,7.90
2019-02-02T15:35:30.305Z,7.90
2019-02-02T15:37:58.599Z,8.00
2019-02-02T15:40:26.852Z,8.00
2019-02-02T15:42:55.231Z,7.90
2019-02-02T15:45:24.693Z,7.80
2019-02-02T15:47:52.604Z,7.80
2019-02-02T15:50:20.541Z,7.70
2019-02-02T15:52:48.747Z,7.80
2019-02-02T15:55:20.877Z,7.70
2019-02-02T15:57:49.338Z,7.70
2019-02-02T16:00:29.442Z,7.90
2019-02-02T16:02:57.717Z,7.90
2019-02-02T16:05:25.999Z,7.80
2019-02-02T16:07:54.790Z,7.80
2019-02-02T16:10:25.584Z,7.80
2019-02-02T16:12:53.687Z,7.70
2019-02-02T16:15:21.891Z,7.70
2019-02-02T16:17:50.342Z,7.60
2019-02-02T16:20:22.039Z,7.60
2019-02-02T16:22:50.037Z,7.60
2019-02-02T16:25:18.586Z,7.50
2019-02-02T16:27:46.654Z,7.40
2019-02-02T16:30:19.116Z,7.40
2019-02-02T16:32:47.416Z,7.40
2019-02-02T16:35:15.351Z,7.30
2019-02-02T16:37:43.449Z,7.20
2019-02-02T16:40:15.531Z,7.40
2019-02-02T16:42:43.685Z,7.40
2019-02-02T16:45:15.652Z,7.40
2019-02-02T16:47:43.945Z,7.40
2019-02-02T16:50:14.791Z,7.30
2019-02-02T16:52:43.097Z,7.30
2019-02-02T16:55:11.696Z,7.20
2019-02-02T16:57:40.371Z,7.10
2019-02-02T17:00:16.150Z,7.10
2019-02-02T17:02:44.346Z,7.10
2019-02-02T17:05:12.676Z,7.00
2019-02-02T17:07:41.615Z,7.00
2019-02-02T17:10:20.688Z,7.00
2019-02-02T17:12:48.773Z,7.20
2019-02-02T17:15:16.985Z,7.20
2019-02-02T17:17:45.520Z,7.10
2019-02-02T17:20:17.168Z,7.10
2019-02-02T17:22:45.635Z,7.10
2019-02-02T17:25:16.313Z,7.10
2019-02-02T17:27:44.570Z,7.10
2019-02-02T17:30:16.200Z,7.10
2019-02-02T17:32:44.687Z,7.00
2019-02-02T17:35:14.221Z,7.00
2019-02-02T17:37:42.509Z,7.00
2019-02-02T17:40:17.182Z,7.00
2019-02-02T17:42:45.531Z,6.90
2019-02-02T17:45:17.051Z,6.80
2019-02-02T17:47:45.536Z,6.80
2019-02-02T17:50:23.411Z,6.70
2019-02-02T17:52:51.401Z,6.70
2019-02-02T17:55:19.506Z,6.70
2019-02-02T17:57:47.470Z,6.70
2019-02-02T18:00:21.578Z,6.50
2019-02-02T18:02:49.803Z,6.50
2019-02-02T18:05:17.960Z,6.60
2019-02-02T18:07:45.973Z,6.50
2019-02-02T18:10:15.042Z,6.30
2019-02-02T18:12:43.444Z,6.10
2019-02-02T18:15:13.123Z,6.10
2019-02-02T18:17:41.308Z,6.30
2019-02-02T18:20:11.879Z,6.20
2019-02-02T18:22:39.980Z,6.20
2019-02-02T18:25:10.217Z,6.30
2019-02-02T18:27:38.483Z,6.00
2019-02-02T18:30:11.736Z,5.90
2019-02-02T18:32:40.117Z,5.70
2019-02-02T18:35:09.619Z,5.60
2019-02-02T18:37:37.628Z,5.70
2019-02-02T18:40:08.108Z,5.80
2019-02-02T18:42:36.539Z,5.70
2019-02-02T18:45:05.640Z,5.70
2019-02-02T18:47:33.674Z,5.60
2019-02-02T18:50:01.859Z,5.50
2019-02-02T18:52:29.909Z,5.50
2019-02-02T18:54:58.433Z,5.60
2019-02-02T18:57:26.796Z,5.70
2019-02-02T18:59:54.895Z,5.60
2019-02-02T19:02:22.864Z,5.60
2019-02-02T19:05:02.895Z,5.70
2019-02-02T19:07:21.217Z,5.70
2019-02-02T19:09:49.570Z,5.70
2019-02-02T19:12:17.695Z,5.50
2019-02-02T19:14:46.077Z,5.40
2019-02-02T19:17:14.306Z,5.30
2019-02-02T19:19:42.506Z,5.40
2019-02-02T19:22:11.136Z,5.50
2019-02-02T19:24:39.165Z,5.50
2019-02-02T19:27:07.334Z,5.60
2019-02-02T19:29:35.400Z,5.60
2019-02-02T19:32:03.473Z,5.60
2019-02-02T19:34:31.531Z,5.50
2019-02-02T19:36:59.733Z,5.60
2019-02-02T19:39:28.307Z,5.60
2019-02-02T19:41:56.310Z,5.70
2019-02-02T19:44:24.386Z,5.70
2019-02-02T19:46:52.401Z,5.60
2019-02-02T19:49:20.476Z,5.50
2019-02-02T19:51:49.161Z,5.50
2019-02-02T19:54:17.247Z,5.70
2019-02-02T19:56:45.153Z,5.80
2019-02-02T19:59:13.325Z,5.60
2019-02-02T20:01:41.776Z,5.60
2019-02-02T20:04:10.431Z,5.50
2019-02-02T20:06:38.458Z,5.40
2019-02-02T20:09:07.827Z,5.40
2019-02-02T20:11:35.893Z,5.40
2019-02-02T20:14:04.184Z,5.40
2019-02-02T20:16:32.192Z,5.50
2019-02-02T20:19:00.359Z,5.70
2019-02-02T20:21:28.470Z,5.70
2019-02-02T20:23:56.590Z,5.60
2019-02-02T20:26:24.494Z,5.50
2019-02-02T20:28:52.496Z,5.50
2019-02-02T20:31:20.654Z,5.60
2019-02-02T20:33:48.890Z,5.90
2019-02-02T20:36:17.110Z,5.80
2019-02-02T20:38:45.525Z,5.70
2019-02-02T20:41:13.810Z,5.60
2019-02-02T20:43:42.283Z,5.60
2019-02-02T20:46:10.470Z,5.70
2019-02-02T20:48:38.493Z,5.80
2019-02-02T20:51:06.493Z,5.90
2019-02-02T20:53:34.469Z,6.00
2019-02-02T20:56:02.574Z,5.90
2019-02-02T20:58:30.545Z,5.90
2019-02-02T21:00:58.671Z,5.90
2019-02-02T21:03:26.741Z,5.90
2019-02-02T21:05:54.790Z,5.90
2019-02-02T21:08:22.853Z,5.80
2019-02-02T21:10:51.265Z,5.70
2019-02-02T21:13:19.248Z,5.70
2019-02-02T21:15:47.268Z,5.70
2019-02-02T21:18:15.931Z,5.80
2019-02-02T21:20:44.217Z,5.80
2019-02-02T21:23:12.306Z,5.80
2019-02-02T21:25:40.969Z,5.80
2019-02-02T21:28:08.999Z,5.90
2019-02-02T21:30:37.200Z,5.90
2019-02-02T21:33:05.613Z,6.00
2019-02-02T21:35:33.772Z,6.00
2019-02-02T21:38:02.140Z,5.90
2019-02-02T21:40:32.488Z,5.90
2019-02-02T21:43:00.507Z,5.90
2019-02-02T21:45:28.941Z,6.00
2019-02-02T21:47:58.176Z,6.00
2019-02-02T21:50:26.694Z,6.10
2019-02-02T21:52:55.203Z,6.10
2019-02-02T21:55:26.405Z,6.00
2019-02-02T21:57:54.744Z,5.90
2019-02-02T22:00:29.688Z,5.90
2019-02-02T22:02:57.846Z,6.00
2019-02-02T22:05:25.940Z,6.00
2019-02-02T22:07:54.538Z,6.00
2019-02-02T22:10:22.641Z,6.00
2019-02-02T22:12:52.786Z,6.00
2019-02-02T22:15:22.648Z,5.80
2019-02-02T22:17:50.608Z,5.70
2019-02-02T22:20:18.718Z,5.60
2019-02-02T22:22:46.846Z,5.70
2019-02-02T22:25:21.198Z,5.60
2019-02-02T22:27:50.216Z,5.60
2019-02-02T22:30:30.504Z,5.50
2019-02-02T22:32:59.350Z,5.50
2019-02-02T22:35:27.993Z,5.60
2019-02-02T22:37:57.011Z,5.60
2019-02-02T22:55:17.999Z,5.50
2019-02-02T22:57:47.111Z,5.50
2019-02-02T23:03:06.246Z,5.40
2019-02-02T23:05:59.830Z,5.40
2019-02-02T23:09:15.272Z,5.40
2019-02-02T23:12:32.778Z,5.40
2019-02-02T23:21:31.048Z,5.40
2019-02-02T23:29:17.056Z,5.60
2019-02-02T23:31:46.381Z,5.70
2019-02-02T23:39:31.706Z,5.90
2019-02-02T23:44:50.153Z,5.90
2019-02-02T23:47:19.692Z,5.80
2019-02-02T23:55:11.507Z,5.90
2019-02-02T23:57:40.084Z,5.80
